Time;durP1;ratioP1;P1;durP2;ratioP2;P2;SDS_P1;SDS_P2;PMS_P1;PMS_P2;Temp;Humidity;BMP_temperature;BMP_pressure;BME280_temperature;BME280_humidity;BME280_pressure;Samples;Min_cycle;Max_cycle;Signal;HPM_P1;HPM_P2
2022/10/10 00:00:18;;;;;;;8.85;6.90;;;;;;;6.15;73.04;101851.75;1679719;84;21507;-78
2022/10/10 00:03:05;;;;;;;8.20;6.42;;;;;;;6.14;73.07;101847.03;1680326;84;20972;-76
2022/10/10 00:05:49;;;;;;;14.05;6.92;;;;;;;6.15;73.12;101839.77;1679037;84;21392;-77
2022/10/10 00:08:34;;;;;;;9.55;6.58;;;;;;;6.15;73.17;101833.35;1675068;84;20916;-77
2022/10/10 00:11:22;;;;;;;9.83;6.70;;;;;;;6.16;73.20;101831.23;1676886;84;20939;-77
2022/10/10 00:14:07;;;;;;;9.85;6.70;;;;;;;6.15;73.16;101835.92;1671987;83;20937;-77
2022/10/10 00:16:52;;;;;;;15.20;7.42;;;;;;;6.15;73.20;101826.06;1674215;84;20902;-77
2022/10/10 00:19:37;;;;;;;9.75;7.03;;;;;;;6.15;73.24;101823.08;1677139;85;21535;-77
2022/10/10 00:22:22;;;;;;;13.83;7.22;;;;;;;6.16;73.24;101819.67;1673547;85;20960;-77
2022/10/10 00:25:09;;;;;;;13.53;8.35;;;;;;;6.14;73.26;101812.77;1677305;85;21934;-77
2022/10/10 00:27:54;;;;;;;14.07;7.10;;;;;;;6.14;73.34;101817.91;1671068;85;20948;-77
2022/10/10 00:30:39;;;;;;;11.40;7.20;;;;;;;6.15;73.36;101820.52;1676740;85;20976;-78
2022/10/10 00:33:24;;;;;;;16.12;7.47;;;;;;;6.16;73.40;101810.69;1683747;85;20901;-78
2022/10/10 00:36:09;;;;;;;8.43;6.72;;;;;;;6.15;73.38;101814.09;1676743;85;20957;-78
2022/10/10 00:38:54;;;;;;;12.35;7.25;;;;;;;6.16;73.41;101811.11;1675329;85;20936;-78
2022/10/10 00:41:39;;;;;;;14.80;7.33;;;;;;;6.15;73.41;101814.09;1683091;85;20968;-78
2022/10/10 00:44:26;;;;;;;15.28;7.80;;;;;;;6.12;73.41;101811.45;1677869;85;21776;-78
2022/10/10 00:47:12;;;;;;;18.20;7.42;;;;;;;6.11;73.49;101816.14;1667453;85;21438;-79
2022/10/10 00:49:57;;;;;;;10.68;7.45;;;;;;;6.12;73.51;101816.59;1670986;85;20960;-78
2022/10/10 00:52:42;;;;;;;14.10;8.38;;;;;;;6.13;73.54;101813.61;1670869;85;20909;-78
2022/10/10 00:55:27;;;;;;;15.32;8.43;;;;;;;6.12;73.51;101816.59;1668831;85;20957;-78
2022/10/10 00:58:13;;;;;;;13.93;8.30;;;;;;;6.11;73.51;101812.71;1667807;83;20932;-78
2022/10/10 01:00:58;;;;;;;;;;;;;;;6.08;73.57;101812.64;1671763;83;21539;-78
2022/10/10 01:03:42;;;;;;;11.03;7.70;;;;;;;6.07;73.82;101806.64;1674341;85;20427;-77
2022/10/10 01:06:28;;;;;;;11.05;8.13;;;;;;;6.07;73.65;101798.07;1677338;85;21547;-77
2022/10/10 01:09:13;;;;;;;13.65;8.53;;;;;;;6.08;73.68;101798.10;1679279;85;20948;-77
2022/10/10 01:12:07;;;;;;;11.20;8.08;;;;;;;6.11;73.70;101798.59;1676319;83;20885;-77
2022/10/10 01:15:06;;;;;;;13.35;8.23;;;;;;;6.10;73.66;101799.00;1627211;85;21044;-77
2022/10/10 01:18:21;;;;;;;15.03;8.05;;;;;;;6.06;73.72;101792.48;1665988;85;20945;-77
2022/10/10 01:21:38;;;;;;;;;;;;;;;6.06;73.71;101792.06;1668768;85;21450;-78
2022/10/10 01:25:00;;;;;;;9.70;7.10;;;;;;;6.03;73.92;101794.57;1683898;84;20436;-78
2022/10/10 01:28:02;;;;;;;12.00;7.75;;;;;;;6.01;73.73;101790.23;1669590;85;20924;-78
2022/10/10 01:30:48;;;;;;;11.85;8.15;;;;;;;5.96;73.79;101796.14;1662347;85;20908;-78
2022/10/10 01:33:47;;;;;;;9.08;6.90;;;;;;;5.96;73.80;101788.44;1672996;84;20934;-78
2022/10/10 01:37:00;;;;;;;10.20;6.90;;;;;;;5.90;73.75;101783.17;1553507;84;10000039;-78
2022/10/10 01:39:55;;;;;;;9.98;7.45;;;;;;;5.87;73.80;101779.63;1673830;85;20905;-78
2022/10/10 01:42:51;;;;;;;12.60;7.78;;;;;;;5.78;73.79;101776.45;1671026;85;21298;-78
2022/10/10 01:45:36;;;;;;;16.50;8.28;;;;;;;5.76;73.82;101770.83;1681821;85;20921;-78
2022/10/10 01:48:30;;;;;;;13.28;7.12;;;;;;;5.71;73.87;101772.04;1682684;85;20937;-78
2022/10/10 01:51:36;;;;;;;15.03;9.58;;;;;;;5.68;73.85;101762.99;1671768;85;37483;-77
2022/10/10 01:54:51;;;;;;;14.15;9.03;;;;;;;5.70;73.92;101756.20;1667255;85;21520;-77
2022/10/10 01:58:06;;;;;;;14.87;8.18;;;;;;;5.70;74.00;101751.48;1680810;85;20949;-77
2022/10/10 02:01:06;;;;;;;18.35;8.40;;;;;;;5.69;74.00;101758.73;1675045;85;20909;-77
2022/10/10 02:03:55;;;;;;;11.00;8.53;;;;;;;5.67;74.05;101748.42;1673258;85;21437;-79
2022/10/10 02:06:58;;;;;;;17.95;9.10;;;;;;;5.65;74.08;101753.52;1661319;85;21362;-78
2022/10/10 02:09:46;;;;;;;13.90;9.13;;;;;;;5.63;74.13;101744.06;1670613;85;20969;-78
2022/10/10 02:12:33;;;;;;;16.12;8.15;;;;;;;5.65;74.15;101739.83;1678055;85;20955;-78
2022/10/10 02:15:22;;;;;;;12.28;8.88;;;;;;;5.63;74.17;101747.49;1680680;85;20949;-78
2022/10/10 02:18:09;;;;;;;18.37;9.53;;;;;;;5.62;74.19;101741.91;1670995;84;21849;-78
2022/10/10 02:20:55;;;;;;;17.25;9.10;;;;;;;5.63;74.21;101737.23;1669585;85;21026;-78
2022/10/10 02:23:47;;;;;;;13.95;8.78;;;;;;;5.65;74.24;101741.11;1675743;85;21418;-78
2022/10/10 02:26:34;;;;;;;15.98;9.00;;;;;;;5.64;74.25;101737.68;1666233;85;20957;-78
2022/10/10 02:29:30;;;;;;;21.87;10.72;;;;;;;5.64;74.24;101732.96;1666272;85;21861;-78
2022/10/10 02:32:44;;;;;;;18.73;11.50;;;;;;;5.63;74.25;101733.38;1648754;85;21773;-78
2022/10/10 02:35:37;;;;;;;15.65;10.28;;;;;;;5.64;74.28;101726.55;1670943;85;20893;-78
2022/10/10 02:38:22;;;;;;;18.52;11.03;;;;;;;5.63;74.30;101724.40;1665857;85;21378;-78
2022/10/10 02:41:11;;;;;;;19.10;10.83;;;;;;;5.63;74.30;101725.68;1673480;84;20944;-78
2022/10/10 02:43:57;;;;;;;14.45;9.48;;;;;;;5.61;74.30;101716.22;1677370;83;20948;-78
2022/10/10 02:46:42;;;;;;;14.68;10.00;;;;;;;5.57;74.28;101718.27;1687201;83;20909;-78
2022/10/10 02:49:31;;;;;;;15.03;9.73;;;;;;;5.53;74.33;101709.64;1679936;85;21406;-78
2022/10/10 02:52:16;;;;;;;12.00;8.33;;;;;;;5.50;74.32;101708.28;1671122;83;20949;-78
2022/10/10 02:55:01;;;;;;;13.63;8.33;;;;;;;5.49;74.32;101712.97;1672436;85;20905;-78
2022/10/10 02:57:46;;;;;;;14.07;8.83;;;;;;;5.45;74.35;101709.02;1677272;85;21507;-78
2022/10/10 03:00:31;;;;;;;17.20;9.35;;;;;;;5.43;74.40;101706.83;1668925;85;21008;-78
2022/10/10 03:03:16;;;;;;;15.68;8.83;;;;;;;5.42;74.43;101711.51;1678305;85;21023;-77
2022/10/10 03:06:02;;;;;;;16.07;9.55;;;;;;;5.39;74.40;101712.72;1670609;85;20909;-78
2022/10/10 03:08:47;;;;;;;14.55;9.18;;;;;;;5.36;74.42;101702.39;1663431;85;20894;-78
2022/10/10 03:11:32;;;;;;;16.30;9.73;;;;;;;5.33;74.48;101697.64;1678631;85;21426;-78
2022/10/10 03:14:17;;;;;;;17.40;8.63;;;;;;;5.30;74.49;101691.16;1677726;85;21488;-78
2022/10/10 03:17:02;;;;;;;16.33;10.00;;;;;;;5.27;74.48;101687.25;1680380;85;20912;-78
2022/10/10 03:19:47;;;;;;;19.17;9.40;;;;;;;5.25;74.56;101684.20;1664005;85;20920;-78
2022/10/10 03:22:32;;;;;;;18.85;10.15;;;;;;;5.26;74.54;101682.08;1670273;84;20937;-78
2022/10/10 03:25:17;;;;;;;18.57;9.90;;;;;;;5.23;74.57;101672.62;1670974;85;20906;-78
2022/10/10 03:28:02;;;;;;;17.97;10.33;;;;;;;5.23;74.60;101675.19;1560306;84;5001335;-77
2022/10/10 03:30:47;;;;;;;12.65;9.65;;;;;;;5.23;74.64;101673.04;1677480;84;21417;-77
2022/10/10 03:33:33;;;;;;;14.50;9.60;;;;;;;5.23;74.68;101668.78;1669015;85;20937;-78
2022/10/10 03:36:18;;;;;;;;;;;;;;;5.24;74.69;101667.94;1673705;85;21448;-78
2022/10/10 03:39:03;;;;;;;13.38;9.58;;;;;;;5.24;74.83;101670.51;1665483;83;20148;-78
2022/10/10 03:41:49;;;;;;;13.50;9.38;;;;;;;5.23;74.73;101658.94;1683476;85;21878;-78
2022/10/10 03:44:34;;;;;;;15.10;10.70;;;;;;;5.23;74.73;101661.08;1676983;85;20940;-78
2022/10/10 03:47:19;;;;;;;19.27;10.45;;;;;;;5.22;74.76;101655.50;1693489;83;20941;-78
2022/10/10 03:50:05;;;;;;;16.85;10.28;;;;;;;5.24;74.77;101651.69;1665802;83;21004;-78
2022/10/10 03:52:49;;;;;;;20.60;10.53;;;;;;;5.24;74.74;101650.41;1674277;83;20928;-78
2022/10/10 03:55:34;;;;;;;20.88;11.50;;;;;;;5.24;74.79;101647.43;1686042;83;21425;-78
2022/10/10 03:58:20;;;;;;;14.30;10.40;;;;;;;5.24;74.83;101642.30;1670098;83;21377;-78
2022/10/10 04:01:05;;;;;;;16.77;10.20;;;;;;;5.25;74.81;101644.45;1673977;83;21062;-78
2022/10/10 04:03:50;;;;;;;16.10;10.13;;;;;;;5.23;74.80;101637.14;1691666;83;20948;-77
2022/10/10 04:06:35;;;;;;;21.07;10.72;;;;;;;5.21;74.83;101637.52;1672706;83;20964;-77
2022/10/10 04:09:20;;;;;;;17.15;10.45;;;;;;;5.19;74.81;101643.93;1682286;83;20957;-77
2022/10/10 04:12:05;;;;;;;18.87;10.85;;;;;;;5.15;74.83;101639.98;1670499;85;20912;-77
2022/10/10 04:14:50;;;;;;;14.23;10.00;;;;;;;5.14;74.87;101633.98;1682067;83;20970;-77
2022/10/10 04:17:35;;;;;;;16.97;10.53;;;;;;;5.14;74.88;101637.83;1671497;83;21480;-77
2022/10/10 04:20:20;;;;;;;19.37;10.40;;;;;;;5.13;74.87;101634.82;1681351;83;21101;-77
2022/10/10 04:23:05;;;;;;;14.45;10.05;;;;;;;5.12;74.87;101638.22;1689128;83;21772;-77
2022/10/10 04:25:53;;;;;;;14.47;9.83;;;;;;;5.10;74.87;101635.16;1683669;83;20937;-77
2022/10/10 04:28:38;;;;;;;15.03;10.43;;;;;;;5.09;74.89;101637.28;1687280;84;21414;-77
2022/10/10 04:31:23;;;;;;;17.67;10.13;;;;;;;5.08;74.89;101638.11;1680293;84;20937;-77
2022/10/10 04:34:08;;;;;;;15.48;10.28;;;;;;;5.03;74.89;101634.16;1685918;83;21003;-77
2022/10/10 04:36:53;;;;;;;16.73;9.60;;;;;;;5.01;74.92;101634.54;1683086;83;20917;-77
2022/10/10 04:39:38;;;;;;;20.50;10.55;;;;;;;4.99;74.94;101629.80;1675204;84;20957;-77
2022/10/10 04:42:23;;;;;;;14.87;9.93;;;;;;;4.98;74.98;101625.50;1683282;83;20925;-76
2022/10/10 04:45:09;;;;;;;16.05;10.45;;;;;;;4.95;74.96;101622.86;1677060;83;21445;-76
2022/10/10 04:47:54;;;;;;;14.28;10.45;;;;;;;4.94;75.01;101628.41;1678296;83;20920;-78
2022/10/10 04:50:39;;;;;;;15.03;10.07;;;;;;;4.93;74.99;101621.96;1676393;84;20904;-78
2022/10/10 04:53:25;;;;;;;14.93;9.78;;;;;;;4.91;74.99;101618.08;1680477;83;21539;-76
2022/10/10 04:56:10;;;;;;;18.40;10.85;;;;;;;4.90;75.01;101609.94;1674108;83;21050;-76
2022/10/10 04:58:56;;;;;;;18.60;11.68;;;;;;;4.89;75.02;101605.65;1676592;83;21087;-76
2022/10/10 05:01:41;;;;;;;19.10;11.45;;;;;;;4.87;75.01;101601.31;1672071;83;21091;-76
2022/10/10 05:04:26;;;;;;;18.75;11.05;;;;;;;4.85;75.00;101609.39;1678959;84;21170;-76
2022/10/10 05:07:11;;;;;;;18.82;10.75;;;;;;;4.81;75.02;101602.45;1676663;84;21088;-76
2022/10/10 05:09:56;;;;;;;19.87;11.88;;;;;;;4.78;75.00;101606.22;1673308;84;21048;-76
2022/10/10 05:12:41;;;;;;;22.85;12.28;;;;;;;4.75;75.06;101598.47;1676485;84;21092;-76
2022/10/10 05:15:27;;;;;;;22.35;11.80;;;;;;;4.73;75.09;101592.02;1682914;84;21603;-76
2022/10/10 05:18:12;;;;;;;22.60;12.63;;;;;;;4.73;75.13;101590.74;1684785;84;21051;-76
2022/10/10 05:20:57;;;;;;;16.62;12.10;;;;;;;4.73;75.13;101593.31;1676177;84;21078;-76
2022/10/10 05:23:42;;;;;;;22.37;13.40;;;;;;;4.72;75.17;101587.73;1670042;84;21091;-76
2022/10/10 05:26:28;;;;;;;22.58;14.00;;;;;;;4.71;75.12;101586.00;1674915;84;22225;-76
2022/10/10 05:29:13;;;;;;;24.00;13.00;;;;;;;4.73;75.20;101589.87;1680316;83;21059;-76
2022/10/10 05:31:58;;;;;;;20.80;13.28;;;;;;;4.73;75.20;101594.59;1677920;83;22514;-76
2022/10/10 05:34:43;;;;;;;20.72;13.10;;;;;;;4.73;75.23;101590.74;1686093;83;21103;-76
2022/10/10 05:37:28;;;;;;;20.17;11.95;;;;;;;4.76;75.31;101587.39;1678143;83;21117;-76
2022/10/10 05:40:13;;;;;;;24.77;13.05;;;;;;;4.80;75.36;101579.81;1674387;83;21647;-76
2022/10/10 05:42:59;;;;;;;24.27;13.65;;;;;;;4.94;75.52;101582.69;1679855;83;21044;-76
2022/10/10 05:45:44;;;;;;;19.15;12.93;;;;;;;5.16;75.60;101577.20;1669973;84;21067;-76
2022/10/10 05:48:29;;;;;;;19.25;12.60;;;;;;;5.50;75.68;101579.16;1681253;84;21135;-77
2022/10/10 05:51:15;;;;;;;16.10;12.00;;;;;;;5.74;75.53;101568.48;1682724;84;21720;-77
2022/10/10 05:54:00;;;;;;;16.95;11.55;;;;;;;5.83;75.46;101563.52;1683484;84;21048;-77
2022/10/10 05:56:45;;;;;;;19.75;12.60;;;;;;;5.89;75.41;101559.41;1672547;84;21099;-77
2022/10/10 05:59:30;;;;;;;24.32;15.30;;;;;;;5.94;75.40;101559.48;1666115;84;21051;-77
2022/10/10 06:02:15;;;;;;;27.87;17.92;;;;;;;5.94;75.44;101548.80;1678761;84;21523;-77
2022/10/10 06:05:00;;;;;;;28.05;15.30;;;;;;;5.98;75.46;101544.59;1674628;84;21044;-76
2022/10/10 06:07:45;;;;;;;36.28;16.25;;;;;;;6.03;75.51;101545.53;1675652;84;21055;-76
2022/10/10 06:10:41;;;;;;;24.65;17.10;;;;;;;6.10;75.58;101543.94;1671146;84;21087;-76
2022/10/10 06:13:26;;;;;;;30.57;21.20;;;;;;;6.28;75.78;101536.51;1669575;84;21667;-77
2022/10/10 06:16:11;;;;;;;24.85;16.87;;;;;;;6.79;76.00;101536.84;1669067;83;21135;-77
2022/10/10 06:18:57;;;;;;;23.12;15.60;;;;;;;7.35;75.84;101537.98;1674671;84;21064;-77
2022/10/10 06:21:42;;;;;;;21.12;12.68;;;;;;;7.94;75.82;101534.31;1671637;85;21100;-77
2022/10/10 06:27:02;;;;;;;15.10;9.68;;;;;;;9.21;75.69;101528.73;1696598;80;21038;-73
2022/10/10 06:29:47;;;;;;;12.88;8.18;;;;;;;9.66;75.64;101533.59;1711253;82;21081;-73
2022/10/10 06:32:32;;;;;;;8.60;7.53;;;;;;;10.00;75.63;101531.48;1705174;82;20990;-73
2022/10/10 06:35:18;;;;;;;10.32;7.25;;;;;;;10.49;75.76;101531.06;1711731;83;21071;-73
2022/10/10 06:38:03;;;;;;;7.78;6.42;;;;;;;11.01;75.70;101532.23;1702606;82;21022;-73
2022/10/10 06:40:48;;;;;;;9.70;7.50;;;;;;;11.45;75.83;101522.09;1705451;82;21070;-73
2022/10/10 06:43:35;;;;;;;9.20;6.33;;;;;;;11.91;75.90;101526.18;1704936;82;21044;-74
2022/10/10 06:46:20;;;;;;;8.30;6.28;;;;;;;12.46;75.67;101527.02;1672736;83;21071;-73
2022/10/10 06:49:05;;;;;;;9.75;6.80;;;;;;;12.79;75.66;101525.80;1698109;83;21035;-73
2022/10/10 06:51:50;;;;;;;10.75;6.92;;;;;;;13.16;75.58;101521.05;1701323;82;21053;-73
2022/10/10 06:54:35;;;;;;;6.78;6.17;;;;;;;13.31;75.81;101514.81;1706807;82;21062;-74
2022/10/10 06:57:20;;;;;;;6.75;5.72;;;;;;;13.70;75.81;101512.53;1710566;83;21092;-73
2022/10/10 07:00:07;;;;;;;8.90;5.67;;;;;;;14.15;75.94;101510.50;1708494;82;21482;-73
2022/10/10 07:02:51;;;;;;;7.87;6.58;;;;;;;14.44;75.67;101510.04;1712691;83;20925;-73
2022/10/10 07:05:36;;;;;;;6.37;5.72;;;;;;;14.81;75.66;101502.38;1704747;83;21555;-73
2022/10/10 07:08:23;;;;;;;7.62;5.92;;;;;;;15.10;75.50;101502.22;1699533;81;20994;-73
2022/10/10 07:11:08;;;;;;;8.53;5.62;;;;;;;15.12;75.21;101499.14;1706996;83;20904;-73
2022/10/10 07:13:53;;;;;;;8.45;5.62;;;;;;;15.06;75.33;101489.74;1710024;83;21593;-73
2022/10/10 07:16:39;;;;;;;9.00;5.05;;;;;;;15.21;75.30;101486.78;1709156;81;21118;-73
2022/10/10 07:19:24;;;;;;;9.00;5.60;;;;;;;15.37;75.22;101487.32;1706367;82;21594;-73
2022/10/10 07:22:09;;;;;;;6.25;5.08;;;;;;;15.36;74.85;101479.09;1702806;83;21368;-73
2022/10/10 07:24:54;;;;;;;8.08;5.15;;;;;;;15.63;75.08;101471.55;1705901;83;21101;-73
2022/10/10 07:27:39;;;;;;;6.58;5.53;;;;;;;15.73;74.71;101475.20;1716836;82;21042;-74
2022/10/10 07:30:25;;;;;;;8.75;5.62;;;;;;;15.83;74.71;101466.27;1715711;83;20971;-74
2022/10/10 07:33:12;;;;;;;5.43;4.87;;;;;;;15.93;74.51;101464.75;1714453;82;21082;-74
2022/10/10 07:35:57;;;;;;;10.13;5.35;;;;;;;15.88;74.15;101464.86;1697461;83;21561;-73
2022/10/10 07:38:43;;;;;;;7.80;4.92;;;;;;;15.77;74.00;101470.33;1710761;81;21387;-73
2022/10/10 07:41:28;;;;;;;7.75;5.40;;;;;;;15.87;74.11;101477.05;1713504;82;20994;-73
2022/10/10 07:44:13;;;;;;;8.30;5.05;;;;;;;16.04;73.99;101471.42;1683502;83;21113;-73
2022/10/10 07:46:58;;;;;;;6.22;4.80;;;;;;;16.15;73.68;101473.28;1714032;82;21054;-73
2022/10/10 07:49:43;;;;;;;8.33;5.60;;;;;;;16.53;73.50;101473.59;1713875;82;21053;-73
2022/10/10 07:52:28;;;;;;;5.97;4.72;;;;;;;16.63;73.05;101473.34;1714838;83;21046;-73
2022/10/10 07:55:14;;;;;;;7.92;4.62;;;;;;;16.75;72.98;101463.87;1706829;83;21308;-73
2022/10/10 07:58:01;;;;;;;6.05;4.70;;;;;;;17.10;72.67;101470.71;1672419;84;21033;-73
2022/10/10 08:00:46;;;;;;;5.62;4.30;;;;;;;17.45;72.32;101458.72;1664724;84;21048;-73
2022/10/10 08:03:31;;;;;;;5.90;5.08;;;;;;;17.99;72.17;101460.48;1657149;85;21074;-73
2022/10/10 08:06:17;;;;;;;10.10;4.35;;;;;;;18.24;71.51;101451.77;1646633;84;21117;-73
2022/10/10 08:09:03;;;;;;;8.95;4.40;;;;;;;18.45;71.68;101446.64;1663991;84;21152;-73
2022/10/10 08:11:48;;;;;;;7.03;4.33;;;;;;;18.67;71.51;101444.61;1666301;84;21117;-73
2022/10/10 08:14:33;;;;;;;7.85;4.42;;;;;;;18.25;71.15;101440.39;1661026;85;21508;-73
2022/10/10 08:17:18;;;;;;;5.65;4.42;;;;;;;17.83;71.27;101448.34;1663941;84;21051;-73
2022/10/10 08:20:05;;;;;;;8.13;5.70;;;;;;;17.35;71.01;101444.66;1651808;85;21060;-73
2022/10/10 08:22:49;;;;;;;8.73;5.80;;;;;;;16.77;70.15;101443.79;1665352;85;20985;-73
2022/10/10 08:25:34;;;;;;;8.80;4.37;;;;;;;16.06;70.48;101440.08;1675827;84;21032;-73
2022/10/10 08:28:19;;;;;;;6.95;4.92;;;;;;;15.58;70.28;101437.80;1663851;84;21545;-73
2022/10/10 08:31:08;;;;;;;8.50;4.80;;;;;;;15.18;70.02;101439.09;1664905;84;21038;-73
2022/10/10 08:33:55;;;;;;;8.33;5.40;;;;;;;14.77;69.73;101430.88;1661686;85;21072;-73
2022/10/10 08:36:41;;;;;;;8.15;5.33;;;;;;;14.39;69.31;101432.47;1657243;84;21029;-73
2022/10/10 08:39:26;;;;;;;7.25;4.90;;;;;;;14.02;68.94;101423.63;1666332;84;21078;-73
2022/10/10 08:42:19;;;;;;;10.48;5.12;;;;;;;13.72;68.95;101419.35;1662088;84;21126;-73
2022/10/10 08:45:15;;;;;;;7.05;5.80;;;;;;;13.51;68.66;101413.22;1655305;84;21055;-73
2022/10/10 08:48:09;;;;;;;6.22;4.60;;;;;;;13.26;68.48;101406.22;1656397;85;21054;-73
2022/10/10 08:51:02;;;;;;;10.18;5.65;;;;;;;13.01;67.66;101416.05;1657111;85;21105;-72
2022/10/10 08:53:51;;;;;;;8.58;4.90;;;;;;;12.72;68.00;101411.25;1659658;84;21086;-72
2022/10/10 08:56:38;;;;;;;9.20;5.20;;;;;;;12.57;67.75;101409.70;1658713;84;21336;-72
2022/10/10 08:59:38;;;;;;;10.78;4.45;;;;;;;12.43;67.62;101406.86;1661977;84;21043;-72
2022/10/10 09:02:52;;;;;;;6.03;5.28;;;;;;;12.34;67.61;101404.37;1664961;85;21057;-72
2022/10/10 09:05:45;;;;;;;9.20;5.10;;;;;;;12.28;67.36;101394.92;1561458;90;21378;-72
2022/10/10 09:08:49;;;;;;;6.08;5.42;;;;;;;12.18;67.25;101396.74;1666253;84;21625;-72
2022/10/10 09:12:12;;;;;;;7.55;4.58;;;;;;;12.19;67.11;101401.49;1639319;86;21101;-72
2022/10/10 09:15:21;;;;;;;6.47;5.05;;;;;;;12.17;67.13;101395.46;1661838;84;21474;-72
2022/10/10 09:18:35;;;;;;;8.08;5.10;;;;;;;12.20;67.08;101392.41;1664825;85;21565;-72
2022/10/10 09:21:25;;;;;;;8.48;4.72;;;;;;;12.20;66.76;101383.33;1666999;84;20990;-72
2022/10/10 09:24:19;;;;;;;6.35;5.08;;;;;;;12.20;66.87;101382.47;1664805;84;21408;-72
2022/10/10 09:27:09;;;;;;;9.25;5.87;;;;;;;12.23;66.83;101379.41;1661072;85;21069;-73
2022/10/10 09:30:08;;;;;;;7.15;5.00;;;;;;;12.28;66.71;101373.31;1632057;86;21103;-72
2022/10/10 09:33:11;;;;;;;7.62;4.97;;;;;;;12.30;66.65;101373.72;1674109;84;21018;-72
2022/10/10 09:35:58;;;;;;;9.55;4.97;;;;;;;12.34;66.60;101370.66;1664727;84;21018;-72
2022/10/10 09:39:13;;;;;;;7.00;4.90;;;;;;;12.38;66.58;101369.30;1625822;84;5000737;-73
2022/10/10 09:42:02;;;;;;;6.08;5.30;;;;;;;12.43;66.52;101358.87;1681234;84;21090;-73
2022/10/10 09:44:47;;;;;;;9.55;5.30;;;;;;;12.46;66.48;101355.81;1696054;83;21078;-72
2022/10/10 09:47:33;;;;;;;5.75;5.00;;;;;;;12.52;66.33;101355.70;1701451;82;21121;-72
2022/10/10 09:50:18;;;;;;;12.07;5.22;;;;;;;12.59;66.36;101346.11;1700483;83;21157;-72
2022/10/10 09:53:03;;;;;;;8.63;5.70;;;;;;;12.65;66.36;101346.03;1699837;82;21684;-72
2022/10/10 09:55:50;;;;;;;10.68;5.72;;;;;;;12.71;66.30;101346.40;1701956;83;21592;-72
2022/10/10 09:58:45;;;;;;;11.75;5.62;;;;;;;12.75;66.33;101344.18;1723116;82;22698;-72
2022/10/10 10:01:33;;;;;;;10.00;5.17;;;;;;;12.85;66.37;101339.29;1702292;83;21632;-72
2022/10/10 10:04:19;;;;;;;8.53;5.12;;;;;;;12.91;66.33;101342.66;1720219;82;21633;-72
2022/10/10 10:07:26;;;;;;;8.97;5.53;;;;;;;12.97;66.28;101333.93;1720773;82;21161;-72
2022/10/10 10:10:19;;;;;;;10.13;5.70;;;;;;;13.00;66.26;101333.02;1709283;82;21007;-73
2022/10/10 10:13:09;;;;;;;8.93;6.08;;;;;;;13.06;66.25;101332.47;1722690;82;21300;-73
2022/10/10 10:16:03;;;;;;;7.87;5.42;;;;;;;13.14;66.24;101327.16;1720199;82;21079;-73
2022/10/10 10:18:48;;;;;;;8.40;6.05;;;;;;;13.19;66.22;101319.75;1692579;84;21037;-72
2022/10/10 10:21:50;;;;;;;7.40;5.80;;;;;;;13.27;66.23;101314.87;1700715;83;21129;-73
2022/10/10 10:24:36;;;;;;;8.70;5.90;;;;;;;13.33;66.26;101305.25;1700540;83;21050;-73
2022/10/10 10:27:24;;;;;;;9.30;5.80;;;;;;;13.39;66.15;101300.40;1700430;83;21021;-73
2022/10/10 10:30:14;;;;;;;9.03;6.03;;;;;;;13.46;66.18;101299.41;1655771;86;21094;-72
2022/10/10 10:33:24;;;;;;;7.28;5.47;;;;;;;13.52;66.16;101302.73;1675686;84;21053;-72
2022/10/10 10:36:26;;;;;;;7.58;5.72;;;;;;;13.61;66.08;101291.77;1678682;84;21468;-72
2022/10/10 10:39:49;;;;;;;8.03;5.35;;;;;;;13.66;66.11;101293.84;1680572;83;21630;-73
2022/10/10 10:43:02;;;;;;;9.70;5.92;;;;;;;13.72;66.07;101291.99;1676649;85;21072;-73
2022/10/10 10:46:04;;;;;;;11.78;5.72;;;;;;;13.79;66.06;101294.04;1653706;85;21013;-72
2022/10/10 10:49:09;;;;;;;8.78;5.72;;;;;;;13.85;65.95;101285.69;1681804;85;21086;-72
2022/10/10 10:52:09;;;;;;;8.95;6.40;;;;;;;13.91;66.03;101286.02;1673142;83;21095;-72
2022/10/10 10:55:23;;;;;;;8.50;5.75;;;;;;;13.96;65.99;101283.33;1669308;85;21041;-72
2022/10/10 10:58:31;;;;;;;11.10;5.75;;;;;;;14.00;65.91;101277.18;1674095;85;21355;-73
2022/10/10 11:01:28;;;;;;;8.45;5.72;;;;;;;14.02;65.88;101274.97;1679705;84;21097;-72
2022/10/10 11:04:55;;;;;;;10.65;5.60;;;;;;;14.06;65.81;101273.98;1679460;85;21091;-72
2022/10/10 11:08:04;;;;;;;5.20;4.55;;;;;;;14.07;65.72;101277.44;1597625;88;21449;-72
2022/10/10 11:11:09;;;;;;;7.28;4.50;;;;;;;14.09;65.72;101275.67;1681199;82;21828;-72
2022/10/10 11:14:22;;;;;;;9.78;5.58;;;;;;;14.10;65.72;101274.34;1678073;83;21053;-73
2022/10/10 11:17:32;;;;;;;6.40;5.45;;;;;;;14.09;65.67;101258.32;1680788;84;21084;-73
2022/10/10 11:20:44;;;;;;;8.93;4.97;;;;;;;14.11;65.60;101251.79;1681306;83;21045;-72
2022/10/10 11:23:47;;;;;;;8.43;5.20;;;;;;;14.16;65.59;101244.75;1674181;84;21039;-72
2022/10/10 11:26:39;;;;;;;6.45;4.87;;;;;;;14.19;65.61;101236.44;1668347;84;21050;-73
2022/10/10 11:29:33;;;;;;;5.12;4.62;;;;;;;14.21;65.57;101235.11;1658906;83;21424;-73
2022/10/10 11:32:23;;;;;;;6.22;4.03;;;;;;;14.25;65.52;101234.16;1698087;82;21113;-74
2022/10/10 11:35:19;;;;;;;4.85;4.35;;;;;;;14.26;65.55;101235.88;1687870;83;21680;-74
2022/10/10 11:38:24;;;;;;;6.85;4.85;;;;;;;14.34;65.54;101227.45;1690110;82;21129;-73
2022/10/10 11:41:21;;;;;;;9.25;4.87;;;;;;;14.42;65.46;101222.98;1684961;82;21145;-73
2022/10/10 11:44:23;;;;;;;7.25;5.22;;;;;;;14.49;65.43;101215.89;1675648;82;21038;-73
2022/10/10 11:47:18;;;;;;;7.33;5.10;;;;;;;14.52;65.39;101206.72;1679713;82;21134;-73
2022/10/10 11:50:27;;;;;;;9.25;5.45;;;;;;;14.51;65.34;101210.21;1691129;82;21764;-73
2022/10/10 11:53:23;;;;;;;9.05;4.60;;;;;;;14.51;65.30;101201.95;1660677;83;21159;-73
2022/10/10 11:56:32;;;;;;;10.72;4.30;;;;;;;14.50;65.24;101195.48;1611871;87;21113;-73
2022/10/10 11:59:27;;;;;;;12.55;4.60;;;;;;;14.49;65.24;101189.87;1607465;87;22167;-73
2022/10/10 12:02:20;;;;;;;6.65;4.00;;;;;;;14.50;65.19;101188.98;1606304;87;21676;-73
2022/10/10 12:05:08;;;;;;;5.35;3.85;;;;;;;14.48;65.18;101181.20;1605752;89;21101;-75
2022/10/10 12:08:01;;;;;;;5.85;4.00;;;;;;;14.49;65.16;101172.52;1469352;88;5001110;-74
2022/10/10 12:10:56;;;;;;;4.12;3.72;;;;;;;14.51;65.14;101173.33;1607442;87;21129;-74
2022/10/10 12:13:46;;;;;;;7.17;4.15;;;;;;;14.54;65.13;101168.05;1606392;87;21114;-73
2022/10/10 12:16:36;;;;;;;4.97;3.72;;;;;;;14.61;65.09;101166.58;1607000;88;21137;-73
2022/10/10 12:19:24;;;;;;;5.00;3.55;;;;;;;14.66;65.06;101164.72;1606705;87;21094;-74
2022/10/10 12:22:14;;;;;;;5.65;3.60;;;;;;;14.71;65.06;101159.81;1589073;87;21109;-73
2022/10/10 12:25:30;;;;;;;4.65;3.45;;;;;;;14.77;65.01;101166.17;1593558;87;21153;-75
2022/10/10 12:28:18;;;;;;;;;;;;;;;14.86;65.00;101163.80;1629274;86;21300;-74
2022/10/10 12:31:11;;;;;;;6.97;3.90;;;;;;;14.94;64.78;101155.80;1635203;85;20233;-74
2022/10/10 12:34:10;;;;;;;6.05;3.67;;;;;;;14.97;64.92;101159.17;1674993;82;21006;-74
2022/10/10 12:37:00;;;;;;;4.75;3.83;;;;;;;15.02;64.89;101153.84;1687110;82;21066;-74
2022/10/10 12:40:09;;;;;;;9.08;3.98;;;;;;;15.08;64.89;101149.30;1696995;82;21010;-75
2022/10/10 12:42:59;;;;;;;5.28;3.85;;;;;;;15.12;64.82;101145.73;1678856;82;21156;-74
2022/10/10 12:45:57;;;;;;;5.17;4.17;;;;;;;15.18;64.83;101142.96;1698096;82;21125;-74
2022/10/10 12:48:43;;;;;;;8.10;4.20;;;;;;;15.26;64.82;101131.48;1697389;82;21545;-74
2022/10/10 12:51:31;;;;;;;10.43;4.37;;;;;;;15.29;64.74;101130.95;1698557;82;21086;-74
2022/10/10 12:54:24;;;;;;;6.97;4.50;;;;;;;15.31;64.77;101121.79;1688245;82;21094;-73
2022/10/10 12:57:17;;;;;;;10.30;4.15;;;;;;;15.39;64.73;101120.69;1697705;83;21062;-73
2022/10/10 13:00:16;;;;;;;8.00;4.45;;;;;;;15.42;64.67;101119.30;1693349;82;21137;-73
2022/10/10 13:03:04;;;;;;;6.03;4.30;;;;;;;15.44;64.64;101118.80;1699252;82;20991;-73
2022/10/10 13:05:51;;;;;;;7.70;3.62;;;;;;;15.47;64.59;101112.20;1696259;82;21022;-73
2022/10/10 13:08:40;;;;;;;4.37;3.85;;;;;;;15.48;64.54;101107.40;1694007;82;21083;-73
2022/10/10 13:11:25;;;;;;;6.62;4.58;;;;;;;15.51;64.56;101105.16;1698185;83;21525;-73
2022/10/10 13:14:12;;;;;;;16.42;4.20;;;;;;;15.52;64.50;101098.59;1695339;83;21078;-73